РПИ Магадан

Сквоки, район применения ICAO EUR-J:

Анадырь 1620-1627

Магадан  6501-6577

Лого Магадан
Руководитель РПИ

Sergey Balandin*

Инструкторы РПИ
Ivan Aksenenko (Instructor)
Sergey Balandin (Senior Instructor)
Входит в состав
ЗЦ Хабаровск

Диспетчеры РПИ

Диспетчер Рейтинг Допуски *
Alex Kalchenko Senior Student UHMM_CTR *, UHMM_APP
Konstantin Gordeev Controller UHMM_CTR
Sergey Balandin Senior Instructor UHMM_CTR
Kirill Babinsev Student 2 UHMM_GND!!!
Nikita Gonjarov Student 2 UHMA_TWR

Аэропорты РПИ

ICAO Город Название Погода
UHMA Анадырь Угольный UHMA 020200Z 14005MPS 6000 -RA SCT003 SCT012 BKN038 09/08 Q0998 R01/////// NOSIG RMK TDZ R01/14005G06MPS END R01/10005G07MPS QFE744/0993
UHMM Магадан Магадан UHMM 020200Z 34005G10MPS 9999 FEW040 SCT070 23/06 Q0999 WS R10 R10/70D NOSIG RMK QFE734 R28/05005G12MPS 010V080
UHMP Певек Певек
UHMD Провидения Бухта Провидения UHMD 010200Z 08005MPS 9999 OVC028 13/10 Q1008 RMK QBB850 QFE755/1007
UHEK Купол Купол